8D3

Sisseton Municipal Airport

Sisseton, South Dakota, USA
METAR K8D3 182156Z AUTO 15010G19KT 27/19 A2993 RMK AO1 SLP119 T02670189
Observed Flight Rules
Jul-18 @ 21:56 UTC (34 minutes ago)
Wind
150° at 10 knots
 Gusting to 19 knots
Temperatures Readings
Current 27°C / 81°F
Dewpoint 19°C / 66°F
Humidity 62%
Altimeter 29.93" Hg
Pressure 1011.9 hPa
Elevation 354
METAR K8D3 182156Z AUTO 15010G19KT 27/19 A2993 RMK AO1 SLP119 T02670189
Observed Flight Rules
Jul-18 @ 21:56 UTC
(34 minutes ago)
Wind
150° at 10 knots
 Gusting to 19 knots
Temperature Dewpoint
27°C / 81°F 19°C / 66°F
Humidity Altimeter Pressure
62% 29.93" Hg 1011.9 hPa